WetterOnline ( http://www.wetteronline.de )

Wetter aktuell Prenzlau

Aktuelles Wetter: Grünow (57m)

6-stündlich | Neueste Meldungen
Ortszeit Temperatur Wetter
Sa, 18.08. 8:00 17.1° C wolkig
Sa, 18.08. 2:00 16.9° C wolkig
Fr, 17.08. 20:00 23.1° C leicht bewölkt
Fr, 17.08. 14:00 30.0° C leicht bewölkt
Fr, 17.08. 8:00 20.1° C fast wolkenlos
Fr, 17.08. 2:00 20.5° C wolkenlos
Do, 16.08. 20:00 26.2° C wolkenlos
Do, 16.08. 14:00 27.4° C wolkenlos
Ortszeit Temperatur Wetter
Sa, 18.08. 9:00 18.6° C fast wolkenlos
Sa, 18.08. 8:50 18.6° C fast wolkenlos
Sa, 18.08. 8:40 18.5° C leicht bewölkt
Sa, 18.08. 8:30 17.6° C wolkig
Sa, 18.08. 8:20 17.6° C wolkig
Sa, 18.08. 8:10 17.5° C bedeckt
Sa, 18.08. 8:00 17.1° C wolkig
Sa, 18.08. 7:30 16.3° C bedeckt
Sa, 18.08. 7:00 15.6° C wolkig
Sa, 18.08. 6:30 14.9° C fast wolkenlos
Sa, 18.08. 6:00 14.6° C wolkig
Ortszeit Relative Feuchte Sichtweite
Sa, 18.08. 8:00 83% 30 km
Sa, 18.08. 2:00 87% 50 km
Fr, 17.08. 20:00 60% 65 km
Fr, 17.08. 14:00 30% 30 km
Fr, 17.08. 8:00 60% 45 km
Fr, 17.08. 2:00 56% 60 km
Do, 16.08. 20:00 39% 70 km
Do, 16.08. 14:00 39% 30 km
Ortszeit Relative Feuchte Sichtweite
Sa, 18.08. 9:00 72% 35 km
Sa, 18.08. 8:50 72% -
Sa, 18.08. 8:40 75% -
Sa, 18.08. 8:30 77% 35 km
Sa, 18.08. 8:20 77% -
Sa, 18.08. 8:10 79% -
Sa, 18.08. 8:00 83% 30 km
Sa, 18.08. 7:30 87% 30 km
Sa, 18.08. 7:00 93% 22 km
Sa, 18.08. 6:30 94% 18 km
Sa, 18.08. 6:00 96% 11 km
Ortszeit Niederschlagsmenge Niederschlagsart
Sa, 18.08. 8:00 0.0 l/m2 in 12 Std. -
Sa, 18.08. 2:00 0.0 l/m2 in 6 Std. -
Fr, 17.08. 20:00 0.0 l/m2 in 12 Std. -
Fr, 17.08. 14:00 0.0 l/m2 in 6 Std. -
Fr, 17.08. 8:00 0.0 l/m2 in 12 Std. -
Fr, 17.08. 2:00 0.0 l/m2 in 6 Std. -
Do, 16.08. 20:00 0.0 l/m2 in 12 Std. -
Do, 16.08. 14:00 0.0 l/m2 in 6 Std. -
Ortszeit Niederschlagsmenge Niederschlagsart
Sa, 18.08. 9:00 0.0 l/m2 in 1 Std. -
Sa, 18.08. 8:50 keine Meldung -
Sa, 18.08. 8:40 keine Meldung -
Sa, 18.08. 8:30 0.0 l/m2 in 1 Std. -
Sa, 18.08. 8:20 keine Meldung -
Sa, 18.08. 8:10 keine Meldung -
Sa, 18.08. 8:00 0.0 l/m2 in 1 Std. -
Sa, 18.08. 7:30 0.0 l/m2 in 1 Std. -
Sa, 18.08. 7:00 0.0 l/m2 in 1 Std. -
Sa, 18.08. 6:30 0.0 l/m2 in 1 Std. -
Sa, 18.08. 6:00 0.0 l/m2 in 1 Std. -
Ortszeit Stärke Spitze Richtung
km/h Bft. km/h Grad Sektor
Sa, 18.08. 8:00 6 1 13 260° W
Sa, 18.08. 2:00 11 2 37 330° NW
Fr, 17.08. 20:00 22 4 44 350° N
Fr, 17.08. 14:00 11 2 25 180° S
Fr, 17.08. 8:00 9 2 24 140° SO
Fr, 17.08. 2:00 19 3 26 150° SO
Do, 16.08. 20:00 14 3 36 150° SO
Do, 16.08. 14:00 18 3 32 160° S
Ortszeit Stärke Spitze Richtung
km/h Bft. km/h Grad Sektor
Sa, 18.08. 9:00 14 3 18 330° NW
Sa, 18.08. 8:50 14 3 - 330° NW
Sa, 18.08. 8:40 11 2 - 340° N
Sa, 18.08. 8:30 11 2 17 330° NW
Sa, 18.08. 8:20 11 2 - 330° NW
Sa, 18.08. 8:10 11 2 - 320° NW
Sa, 18.08. 8:00 6 1 9 260° W
Sa, 18.08. 7:30 4 1 7 240° SW
Sa, 18.08. 7:00 6 1 11 220° SW
Sa, 18.08. 6:30 9 2 11 250° W
Sa, 18.08. 6:00 7 2 11 260° W
Ortszeit Untergrenze Bedeckung Gattung
total tief tief mittel hoch
Sa, 18.08. 8:00 1500 m 5/8 5/8 - - -
Sa, 18.08. 2:00 3600 m 6/8 6/8 - - -
Fr, 17.08. 20:00 3000 m 2/8 2/8 - - -
Fr, 17.08. 14:00 9000 m 6/8 0/8 - - -
Fr, 17.08. 8:00 10500 m 1/8 0/8 - - -
Fr, 17.08. 2:00 - 0/8 0/8 - - -
Do, 16.08. 20:00 - 0/8 0/8 - - -
Do, 16.08. 14:00 - 0/8 0/8 - - -
Ortszeit Bedeckungsgrad in Achtel und Wolkenuntergrenze
Sa, 18.08. 9:00 1(9000m)
Sa, 18.08. 8:50 1(9000m)
Sa, 18.08. 8:40 3(9000m)
Sa, 18.08. 8:30 4(1500m) 7(9000m)
Sa, 18.08. 8:20 4(1500m) 7(9000m)
Sa, 18.08. 8:10 9 9 9
Sa, 18.08. 8:00 5(1500m)
Sa, 18.08. 7:30 8(1500m)
Sa, 18.08. 7:00 6(1800m) 6(10500m)
Sa, 18.08. 6:30 1(1800m) 3(10500m)
Sa, 18.08. 6:00 5(1800m) 6(2100m)
Ortszeit Luftdruck NN (hPa) Tendenz (hPa in 3 Std.)
Sa, 18.08. 8:00 1021 + 1,4
Sa, 18.08. 2:00 1019 + 1,1
Fr, 17.08. 20:00 1016 + 2,1
Fr, 17.08. 14:00 1014 - 0,9
Fr, 17.08. 8:00 1015 + 0,4
Fr, 17.08. 2:00 1015 + 0,1
Do, 16.08. 20:00 1015 - 0,9
Do, 16.08. 14:00 1017 - 1,4
Ortszeit Luftdruck NN (hPa) Tendenz (hPa in 3 Std.)
Sa, 18.08. 9:00 1021 + 0,7
Sa, 18.08. 8:50 1021 keine Meldung
Sa, 18.08. 8:40 1021 keine Meldung
Sa, 18.08. 8:30 1021 + 1,1
Sa, 18.08. 8:20 1021 keine Meldung
Sa, 18.08. 8:10 1021 keine Meldung
Sa, 18.08. 8:00 1021 + 1,4
Sa, 18.08. 7:30 1021 + 1,1
Sa, 18.08. 7:00 1021 + 1,2
Sa, 18.08. 6:30 1021 + 1,0
Sa, 18.08. 6:00 1020 + 1,1
Ortszeit Schneehöhe (cm)
Sa, 18.08. 8:00 -
Sa, 18.08. 2:00 -
Fr, 17.08. 20:00 -
Fr, 17.08. 14:00 -
Fr, 17.08. 8:00 -
Fr, 17.08. 2:00 -
Do, 16.08. 20:00 -
Do, 16.08. 14:00 -
Ortszeit Schneehöhe (cm)
Sa, 18.08. 9:00 -
Sa, 18.08. 8:50 -
Sa, 18.08. 8:40 -
Sa, 18.08. 8:30 -
Sa, 18.08. 8:20 -
Sa, 18.08. 8:10 -
Sa, 18.08. 8:00 -
Sa, 18.08. 7:30 -
Sa, 18.08. 7:00 -
Sa, 18.08. 6:30 -
Sa, 18.08. 6:00 -
Link zu dieser Seite / Seite empfehlen

Das Wetter in ...